createdAt,value
2018-09-12T00:00:33.620Z,84.53
2018-09-12T00:01:08.755Z,85.10
2018-09-12T00:01:44.267Z,85.00
2018-09-12T00:02:20.719Z,85.20
2018-09-12T00:02:56.118Z,85.30
2018-09-12T00:03:31.668Z,85.39
2018-09-12T00:04:06.804Z,85.30
2018-09-12T00:04:42.510Z,85.20
2018-09-12T00:05:17.726Z,85.30
2018-09-12T00:05:52.952Z,85.10
2018-09-12T00:06:28.204Z,85.00
2018-09-12T00:07:03.856Z,85.39
2018-09-12T00:07:39.486Z,85.20
2018-09-12T00:08:14.825Z,85.39
2018-09-12T00:08:50.230Z,85.20
2018-09-12T00:09:25.783Z,85.20
2018-09-12T00:10:01.112Z,85.49
2018-09-12T00:10:36.457Z,85.00
2018-09-12T00:11:11.873Z,85.10
2018-09-12T00:11:47.226Z,85.10
2018-09-12T00:12:22.552Z,85.30
2018-09-12T00:12:57.959Z,85.20
2018-09-12T00:13:33.409Z,85.10
2018-09-12T00:14:08.512Z,85.20
2018-09-12T00:14:44.160Z,85.58
2018-09-12T00:15:19.517Z,85.58
2018-09-12T00:15:55.031Z,85.20
2018-09-12T00:16:30.238Z,85.20
2018-09-12T00:17:05.634Z,85.39
2018-09-12T00:17:41.061Z,85.20
2018-09-12T00:18:17.008Z,85.39
2018-09-12T00:18:52.664Z,85.49
2018-09-12T00:19:27.721Z,85.39
2018-09-12T00:20:02.968Z,85.39
2018-09-12T00:20:38.090Z,85.74
2018-09-12T00:21:13.469Z,85.49
2018-09-12T00:21:49.016Z,85.58
2018-09-12T00:22:24.871Z,85.58
2018-09-12T00:23:00.412Z,85.68
2018-09-12T00:23:35.848Z,85.39
2018-09-12T00:24:11.216Z,85.39
2018-09-12T00:24:46.446Z,85.58
2018-09-12T00:25:21.917Z,85.49
2018-09-12T00:25:57.249Z,85.68
2018-09-12T00:26:32.569Z,85.39
2018-09-12T00:27:07.901Z,86.26
2018-09-12T00:27:43.347Z,85.97
2018-09-12T00:28:18.894Z,85.97
2018-09-12T00:28:54.116Z,85.30
2018-09-12T00:29:29.566Z,85.49
2018-09-12T00:30:04.817Z,85.49
2018-09-12T00:30:40.405Z,86.22
2018-09-12T00:31:16.002Z,85.49
2018-09-12T00:31:51.431Z,85.68
2018-09-12T00:32:26.559Z,85.58
2018-09-12T00:33:01.873Z,86.16
2018-09-12T00:33:37.398Z,86.16
2018-09-12T00:34:12.529Z,85.97
2018-09-12T00:34:48.064Z,86.07
2018-09-12T00:35:23.384Z,86.07
2018-09-12T00:35:58.729Z,85.97
2018-09-12T00:36:34.288Z,85.87
2018-09-12T00:37:09.494Z,85.78
2018-09-12T00:37:44.846Z,85.78
2018-09-12T00:38:19.879Z,85.87
2018-09-12T00:38:55.200Z,86.07
2018-09-12T00:39:30.326Z,86.16
2018-09-12T00:40:05.923Z,86.26
2018-09-12T00:40:41.364Z,86.07
2018-09-12T00:41:16.708Z,86.83
2018-09-12T00:41:52.019Z,86.35
2018-09-12T00:42:27.425Z,86.55
2018-09-12T00:43:02.759Z,86.55
2018-09-12T00:43:37.989Z,86.99
2018-09-12T00:44:13.288Z,86.74
2018-09-12T00:44:48.729Z,86.83
2018-09-12T00:45:23.963Z,86.65
2018-09-12T00:45:59.189Z,86.55
2018-09-12T00:46:34.642Z,86.55
2018-09-12T00:47:10.171Z,86.45
2018-09-12T00:47:45.386Z,86.65
2018-09-12T00:48:20.835Z,86.65
2018-09-12T00:48:56.152Z,86.55
2018-09-12T00:49:31.091Z,86.45
2018-09-12T00:50:06.282Z,86.83
2018-09-12T00:50:41.864Z,86.79
2018-09-12T00:51:17.044Z,86.83
2018-09-12T00:51:52.398Z,86.74
2018-09-12T00:52:27.726Z,86.65
2018-09-12T00:53:03.221Z,86.74
2018-09-12T00:53:38.549Z,86.60
2018-09-12T00:54:13.937Z,86.55
2018-09-12T00:54:49.477Z,86.89
2018-09-12T00:55:24.811Z,86.74
2018-09-12T00:56:00.438Z,86.93
2018-09-12T00:56:35.770Z,86.83
2018-09-12T00:57:11.200Z,86.93
2018-09-12T00:57:46.837Z,86.93
2018-09-12T00:58:22.270Z,86.65
2018-09-12T00:58:57.862Z,86.93
2018-09-12T00:59:33.088Z,86.93
2018-09-12T01:00:08.493Z,87.03
2018-09-12T01:00:43.810Z,86.83
2018-09-12T01:01:19.229Z,87.03
2018-09-12T01:01:54.963Z,86.74
2018-09-12T01:02:30.429Z,87.41
2018-09-12T01:03:05.829Z,87.56
2018-09-12T01:03:40.868Z,87.32
2018-09-12T01:04:16.356Z,87.51
2018-09-12T01:04:51.811Z,87.32
2018-09-12T01:05:27.268Z,87.12
2018-09-12T01:06:02.668Z,86.93
2018-09-12T01:06:38.019Z,87.03
2018-09-12T01:07:13.656Z,86.93
2018-09-12T01:07:49.148Z,87.12
2018-09-12T01:08:24.601Z,87.22
2018-09-12T01:08:59.920Z,87.03
2018-09-12T01:09:35.461Z,87.22
2018-09-12T01:10:10.779Z,87.41
2018-09-12T01:10:46.204Z,87.22
2018-09-12T01:11:21.810Z,87.99
2018-09-12T01:11:56.934Z,87.90
2018-09-12T01:12:32.448Z,87.12
2018-09-12T01:13:07.812Z,86.93
2018-09-12T01:13:43.476Z,87.22
2018-09-12T01:14:18.762Z,87.12
2018-09-12T01:14:53.888Z,87.41
2018-09-12T01:15:29.221Z,86.93
2018-09-12T01:16:04.428Z,87.12
2018-09-12T01:16:39.865Z,87.12
2018-09-12T01:17:15.077Z,87.12
2018-09-12T01:17:50.696Z,87.22
2018-09-12T01:18:25.876Z,86.93
2018-09-12T01:19:01.298Z,87.32
2018-09-12T01:19:36.728Z,87.12
2018-09-12T01:20:12.159Z,87.99
2018-09-12T01:20:47.575Z,87.80
2018-09-12T01:21:22.942Z,87.90
2018-09-12T01:21:58.538Z,87.80
2018-09-12T01:22:34.081Z,87.70
2018-09-12T01:23:09.411Z,87.90
2018-09-12T01:23:45.000Z,87.80
2018-09-12T01:24:20.504Z,87.51
2018-09-12T01:24:55.860Z,88.09
2018-09-12T01:25:31.201Z,88.18
2018-09-12T01:26:06.621Z,87.99
2018-09-12T01:26:41.973Z,87.90
2018-09-12T01:27:17.315Z,87.80
2018-09-12T01:27:52.453Z,88.04
2018-09-12T01:28:27.985Z,87.99
2018-09-12T01:29:03.441Z,88.76
2018-09-12T01:29:38.703Z,88.33
2018-09-12T01:30:14.078Z,88.71
2018-09-12T01:30:49.306Z,88.85
2018-09-12T01:31:25.041Z,88.43
2018-09-12T01:32:00.342Z,88.47
2018-09-12T01:32:36.092Z,89.43
2018-09-12T01:33:11.799Z,89.01
2018-09-12T01:33:47.651Z,88.53
2018-09-12T01:34:22.985Z,88.14
2018-09-12T01:34:58.204Z,89.24
2018-09-12T01:35:33.537Z,89.43
2018-09-12T01:36:08.764Z,88.81
2018-09-12T01:36:44.223Z,89.20
2018-09-12T01:37:19.740Z,89.10
2018-09-12T01:37:55.367Z,89.34
2018-09-12T01:38:30.631Z,89.29
2018-09-12T01:39:06.340Z,89.29
2018-09-12T01:39:41.814Z,89.58
2018-09-12T01:40:17.326Z,89.20
2018-09-12T01:40:52.757Z,89.29
2018-09-12T01:41:28.279Z,89.49
2018-09-12T01:42:03.708Z,89.58
2018-09-12T01:42:39.029Z,89.43
2018-09-12T01:43:14.379Z,89.39
2018-09-12T01:43:49.804Z,89.39
2018-09-12T01:44:24.835Z,89.49
2018-09-12T01:45:00.299Z,89.39
2018-09-12T01:45:35.501Z,89.58
2018-09-12T01:46:10.756Z,89.63
2018-09-12T01:46:46.104Z,89.63
2018-09-12T01:47:21.914Z,89.68
2018-09-12T01:47:57.538Z,90.16
2018-09-12T01:48:33.370Z,90.11
2018-09-12T01:49:08.404Z,90.06
2018-09-12T01:49:43.737Z,90.30
2018-09-12T01:50:19.083Z,90.35
2018-09-12T01:50:54.341Z,90.01
2018-09-12T01:51:29.855Z,90.16
2018-09-12T01:52:05.482Z,90.06
2018-09-12T01:52:40.683Z,90.16
2018-09-12T01:53:16.013Z,90.01
2018-09-12T01:53:51.331Z,90.40
2018-09-12T01:54:26.472Z,90.35
2018-09-12T01:55:01.922Z,90.40
2018-09-12T01:55:37.337Z,90.06
2018-09-12T01:56:12.663Z,90.64
2018-09-12T01:56:48.612Z,90.40
2018-09-12T01:57:24.210Z,90.35
2018-09-12T01:57:59.749Z,90.83
2018-09-12T01:58:35.061Z,90.93
2018-09-12T01:59:10.418Z,90.93
2018-09-12T01:59:45.856Z,90.64
2018-09-12T02:00:21.288Z,90.26
2018-09-12T02:00:57.251Z,90.73
2018-09-12T02:01:32.637Z,90.93
2018-09-12T02:02:07.976Z,90.55
2018-09-12T02:02:43.078Z,90.83
2018-09-12T02:03:18.336Z,90.73
2018-09-12T02:03:53.472Z,90.20
2018-09-12T02:04:29.176Z,90.45
2018-09-12T02:05:04.728Z,90.69
2018-09-12T02:05:40.752Z,91.03
2018-09-12T02:06:16.454Z,90.78
2018-09-12T02:06:51.611Z,90.55
2018-09-12T02:07:26.622Z,90.88
2018-09-12T02:08:01.935Z,90.93
2018-09-12T02:08:37.035Z,90.73
2018-09-12T02:09:12.460Z,90.73
2018-09-12T02:09:47.704Z,90.83
2018-09-12T02:10:23.135Z,90.59
2018-09-12T02:10:58.464Z,90.64
2018-09-12T02:11:34.306Z,90.83
2018-09-12T02:12:09.624Z,90.26
2018-09-12T02:12:44.966Z,90.73
2018-09-12T02:13:20.372Z,90.83
2018-09-12T02:13:55.630Z,90.93
2018-09-12T02:14:30.736Z,90.93
2018-09-12T02:15:06.087Z,90.83
2018-09-12T02:15:41.696Z,90.26
2018-09-12T02:16:16.948Z,90.93
2018-09-12T02:16:52.318Z,90.73
2018-09-12T02:17:27.633Z,90.73
2018-09-12T02:18:02.834Z,90.35
2018-09-12T02:18:38.145Z,90.26
2018-09-12T02:19:13.659Z,90.35
2018-09-12T02:19:48.911Z,90.55
2018-09-12T02:20:24.150Z,90.35
2018-09-12T02:20:59.499Z,90.55
2018-09-12T02:21:34.505Z,90.64
2018-09-12T02:22:10.386Z,90.16
2018-09-12T02:22:45.961Z,90.45
2018-09-12T02:23:21.381Z,90.45
2018-09-12T02:23:56.610Z,90.55
2018-09-12T02:24:31.812Z,90.83
2018-09-12T02:25:07.276Z,90.83
2018-09-12T02:25:42.923Z,90.73
2018-09-12T02:26:18.242Z,90.73
2018-09-12T02:26:53.677Z,90.26
2018-09-12T02:27:29.108Z,90.35
2018-09-12T02:28:04.624Z,90.26
2018-09-12T02:28:41.973Z,90.45
2018-09-12T02:29:17.302Z,90.35
2018-09-12T02:29:52.619Z,90.55
2018-09-12T02:30:28.193Z,89.87
2018-09-12T02:31:03.663Z,90.83
2018-09-12T02:31:38.965Z,90.64
2018-09-12T02:32:14.202Z,90.73
2018-09-12T02:32:49.623Z,90.93
2018-09-12T02:33:25.045Z,90.35
2018-09-12T02:34:00.897Z,90.26
2018-09-12T02:34:36.129Z,90.26
2018-09-12T02:35:11.469Z,89.97
2018-09-12T02:35:46.607Z,89.97
2018-09-12T02:36:22.269Z,89.87
2018-09-12T02:36:57.574Z,90.16
2018-09-12T02:37:32.806Z,90.16
2018-09-12T02:38:08.530Z,90.16
2018-09-12T02:38:44.429Z,89.97
2018-09-12T02:39:19.757Z,90.35
2018-09-12T02:39:55.099Z,90.06
2018-09-12T02:40:30.703Z,90.26
2018-09-12T02:41:06.236Z,90.26
2018-09-12T02:41:41.428Z,89.78
2018-09-12T02:42:17.091Z,90.16
2018-09-12T02:42:52.430Z,90.06
2018-09-12T02:43:27.690Z,89.78
2018-09-12T02:44:03.216Z,89.68
2018-09-12T02:44:38.520Z,89.68
2018-09-12T02:45:14.250Z,89.68
2018-09-12T02:45:49.565Z,89.39
2018-09-12T02:46:24.692Z,90.06
2018-09-12T02:47:00.211Z,90.16
2018-09-12T02:47:35.799Z,90.06
2018-09-12T02:48:11.029Z,89.97
2018-09-12T02:48:46.564Z,90.16
2018-09-12T02:49:21.995Z,90.26
2018-09-12T02:49:57.451Z,90.06
2018-09-12T02:50:32.781Z,90.26
2018-09-12T02:51:08.120Z,90.06
2018-09-12T02:51:43.625Z,89.87
2018-09-12T02:52:19.048Z,90.45
2018-09-12T02:52:54.282Z,90.16
2018-09-12T02:53:29.899Z,89.97
2018-09-12T02:54:05.456Z,89.97
2018-09-12T02:54:40.577Z,89.97
2018-09-12T02:55:16.123Z,90.16
2018-09-12T02:55:51.638Z,90.16
2018-09-12T02:56:27.095Z,89.97
2018-09-12T02:57:02.429Z,90.45
2018-09-12T02:57:37.634Z,90.83
2018-09-12T02:58:12.963Z,90.73
2018-09-12T02:58:48.283Z,90.64
2018-09-12T02:59:23.734Z,90.83
2018-09-12T02:59:59.086Z,90.73
2018-09-12T03:00:34.426Z,90.45
2018-09-12T03:01:09.862Z,90.26
2018-09-12T03:01:45.057Z,90.73
2018-09-12T03:02:20.283Z,90.26
2018-09-12T03:02:55.496Z,90.93
2018-09-12T03:03:30.701Z,90.26
2018-09-12T03:04:06.468Z,90.45
2018-09-12T03:04:41.998Z,90.73
2018-09-12T03:05:17.548Z,90.83
2018-09-12T03:05:52.639Z,90.55
2018-09-12T03:06:28.262Z,90.64
2018-09-12T03:07:03.808Z,90.55
2018-09-12T03:07:39.527Z,90.64
2018-09-12T03:08:14.951Z,90.83
2018-09-12T03:08:50.466Z,91.03
2018-09-12T03:09:25.903Z,90.64
2018-09-12T03:10:01.363Z,91.03
2018-09-12T03:10:36.766Z,91.13
2018-09-12T03:11:12.220Z,91.70
2018-09-12T03:11:47.533Z,91.31
2018-09-12T03:12:22.888Z,91.60
2018-09-12T03:12:58.434Z,91.60
2018-09-12T03:13:33.757Z,91.22
2018-09-12T03:14:09.018Z,91.41
2018-09-12T03:14:44.270Z,91.31
2018-09-12T03:15:19.799Z,91.41
2018-09-12T03:15:55.218Z,91.41
2018-09-12T03:16:30.654Z,91.51
2018-09-12T03:17:06.100Z,91.60
2018-09-12T03:17:41.614Z,91.41
2018-09-12T03:18:16.836Z,91.22
2018-09-12T03:18:52.556Z,91.41
2018-09-12T03:19:27.891Z,91.89
2018-09-12T03:20:03.306Z,91.80
2018-09-12T03:20:38.735Z,92.08
2018-09-12T03:21:13.997Z,91.99
2018-09-12T03:21:49.429Z,92.38
2018-09-12T03:22:24.842Z,92.08
2018-09-12T03:23:00.160Z,91.80
2018-09-12T03:23:35.422Z,92.28
2018-09-12T03:24:10.667Z,92.66
2018-09-12T03:24:46.244Z,92.18
2018-09-12T03:25:21.783Z,92.08
2018-09-12T03:25:57.311Z,92.47
2018-09-12T03:26:32.734Z,92.28
2018-09-12T03:27:07.954Z,92.57
2018-09-12T03:27:43.353Z,92.38
2018-09-12T03:28:18.686Z,93.05
2018-09-12T03:28:53.949Z,92.76
2018-09-12T03:29:29.068Z,92.76
2018-09-12T03:30:04.310Z,93.05
2018-09-12T03:30:39.796Z,93.15
2018-09-12T03:31:14.944Z,92.76
2018-09-12T03:31:50.279Z,92.66
2018-09-12T03:32:25.624Z,92.66
2018-09-12T03:33:01.332Z,92.66
2018-09-12T03:33:36.684Z,92.57
2018-09-12T03:34:12.051Z,93.24
2018-09-12T03:34:47.386Z,93.05
2018-09-12T03:35:22.642Z,93.05
2018-09-12T03:35:57.971Z,93.05
2018-09-12T03:36:33.280Z,93.33
2018-09-12T03:37:08.712Z,93.24
2018-09-12T03:37:43.921Z,92.85
2018-09-12T03:38:19.352Z,93.24
2018-09-12T03:38:54.873Z,92.76
2018-09-12T03:39:30.330Z,93.05
2018-09-12T03:40:05.807Z,93.62
2018-09-12T03:40:41.362Z,92.95
2018-09-12T03:41:16.996Z,93.33
2018-09-12T03:41:52.520Z,93.33
2018-09-12T03:42:27.673Z,93.91
2018-09-12T03:43:02.789Z,92.95
2018-09-12T03:43:38.326Z,93.33
2018-09-12T03:44:13.804Z,93.62
2018-09-12T03:44:49.125Z,93.72
2018-09-12T03:45:24.245Z,93.58
2018-09-12T03:45:59.654Z,93.62
2018-09-12T03:46:35.000Z,93.24
2018-09-12T03:47:10.169Z,93.38
2018-09-12T03:47:45.372Z,93.48
2018-09-12T03:48:20.911Z,93.38
2018-09-12T03:48:56.236Z,93.48
2018-09-12T03:49:31.605Z,93.29
2018-09-12T03:50:06.920Z,93.38
2018-09-12T03:50:42.180Z,93.38
2018-09-12T03:51:17.742Z,93.58
2018-09-12T03:51:53.240Z,93.38
2018-09-12T03:52:28.732Z,93.58
2018-09-12T03:53:04.348Z,93.72
2018-09-12T03:53:39.571Z,94.15
2018-09-12T03:54:15.142Z,94.15
2018-09-12T03:54:50.453Z,93.96
2018-09-12T03:55:25.777Z,93.38
2018-09-12T03:56:01.221Z,93.48
2018-09-12T03:56:36.629Z,93.96
2018-09-12T03:57:12.168Z,94.15
2018-09-12T03:57:47.500Z,94.06
2018-09-12T03:58:22.919Z,94.35
2018-09-12T03:58:58.159Z,94.15
2018-09-12T03:59:33.378Z,94.15
2018-09-12T04:00:08.751Z,93.96
2018-09-12T04:00:44.260Z,94.25
2018-09-12T04:01:19.796Z,94.25
2018-09-12T04:01:55.296Z,94.06
2018-09-12T04:02:30.639Z,93.87
2018-09-12T04:03:06.200Z,94.25
2018-09-12T04:03:41.607Z,94.15
2018-09-12T04:04:16.850Z,93.96
2018-09-12T04:04:52.068Z,93.96
2018-09-12T04:05:27.509Z,94.64
2018-09-12T04:06:02.861Z,94.15
2018-09-12T04:06:38.597Z,94.25
2018-09-12T04:07:14.215Z,94.25
2018-09-12T04:07:49.638Z,94.21
2018-09-12T04:08:25.083Z,94.45
2018-09-12T04:09:00.469Z,95.02
2018-09-12T04:09:35.688Z,94.92
2018-09-12T04:10:11.200Z,94.68
2018-09-12T04:10:46.458Z,94.78
2018-09-12T04:11:21.774Z,95.55
2018-09-12T04:11:57.097Z,95.40
2018-09-12T04:12:32.524Z,94.98
2018-09-12T04:13:07.936Z,94.88
2018-09-12T04:13:43.287Z,95.26
2018-09-12T04:14:18.488Z,95.45
2018-09-12T04:14:53.716Z,95.45
2018-09-12T04:15:29.148Z,95.17
2018-09-12T04:16:04.476Z,95.65
2018-09-12T04:16:39.918Z,95.45
2018-09-12T04:17:15.524Z,94.59
2018-09-12T04:17:51.056Z,94.78
2018-09-12T04:18:26.375Z,95.55
2018-09-12T04:19:01.805Z,95.36
2018-09-12T04:19:37.246Z,95.36
2018-09-12T04:20:12.884Z,95.45
2018-09-12T04:20:48.073Z,95.55
2018-09-12T04:21:23.392Z,95.45
2018-09-12T04:21:58.724Z,95.75
2018-09-12T04:22:34.180Z,96.13
2018-09-12T04:23:09.480Z,95.55
2018-09-12T04:23:45.029Z,95.55
2018-09-12T04:24:20.498Z,96.13
2018-09-12T04:24:55.934Z,96.13
2018-09-12T04:25:31.158Z,96.13
2018-09-12T04:26:06.282Z,96.13
2018-09-12T04:26:41.540Z,95.84
2018-09-12T04:27:16.847Z,96.42
2018-09-12T04:27:52.201Z,95.75
2018-09-12T04:28:27.448Z,96.13
2018-09-12T04:29:02.671Z,96.13
2018-09-12T04:29:38.041Z,96.13
2018-09-12T04:30:13.255Z,96.22
2018-09-12T04:30:48.604Z,96.22
2018-09-12T04:31:23.936Z,95.84
2018-09-12T04:31:59.050Z,96.42
2018-09-12T04:32:34.385Z,96.03
2018-09-12T04:33:09.795Z,96.32
2018-09-12T04:33:45.015Z,96.99
2018-09-12T04:34:20.354Z,96.32
2018-09-12T04:34:55.910Z,96.42
2018-09-12T04:35:31.465Z,96.61
2018-09-12T04:36:06.861Z,96.99
2018-09-12T04:36:42.074Z,96.90
2018-09-12T04:37:17.397Z,96.80
2018-09-12T04:37:52.616Z,96.70
2018-09-12T04:38:28.337Z,96.61
2018-09-12T04:39:03.477Z,96.80
2018-09-12T04:39:38.922Z,97.09
2018-09-12T04:40:14.176Z,96.80
2018-09-12T04:40:49.607Z,96.80
2018-09-12T04:41:24.923Z,96.80
2018-09-12T04:42:00.224Z,96.80
2018-09-12T04:42:35.660Z,96.99
2018-09-12T04:43:10.955Z,96.99
2018-09-12T04:43:46.286Z,97.09
2018-09-12T04:44:21.500Z,96.99
2018-09-12T04:44:57.098Z,96.90
2018-09-12T04:45:32.260Z,96.80
2018-09-12T04:46:07.384Z,96.70
2018-09-12T04:46:42.922Z,97.09
2018-09-12T04:47:18.221Z,97.38
2018-09-12T04:47:53.540Z,97.28
2018-09-12T04:48:28.800Z,96.90
2018-09-12T04:49:04.076Z,96.90
2018-09-12T04:49:39.404Z,96.99
2018-09-12T04:50:14.840Z,97.57
2018-09-12T04:50:50.300Z,97.28
2018-09-12T04:51:25.821Z,96.70
2018-09-12T04:52:01.174Z,97.09
2018-09-12T04:52:36.703Z,97.19
2018-09-12T04:53:12.108Z,96.99
2018-09-12T04:53:47.349Z,96.90
2018-09-12T04:54:22.540Z,96.90
2018-09-12T04:54:57.996Z,97.19
2018-09-12T04:55:33.459Z,97.09
2018-09-12T04:56:08.888Z,97.19
2018-09-12T04:56:44.432Z,96.70
2018-09-12T04:57:20.053Z,96.99
2018-09-12T04:57:55.592Z,96.90
2018-09-12T04:58:31.383Z,96.70
2018-09-12T04:59:07.056Z,96.51
2018-09-12T04:59:42.503Z,96.80
2018-09-12T05:00:17.883Z,96.61
2018-09-12T05:00:53.566Z,96.32
2018-09-12T05:01:28.682Z,96.22
2018-09-12T05:02:03.909Z,96.32
2018-09-12T05:02:39.543Z,96.22
2018-09-12T05:03:14.837Z,95.98
2018-09-12T05:03:50.287Z,95.84
2018-09-12T05:04:25.751Z,96.13
2018-09-12T05:05:00.994Z,95.84
2018-09-12T05:05:36.205Z,96.61
2018-09-12T05:06:11.749Z,96.85
2018-09-12T05:06:47.082Z,96.80
2018-09-12T05:07:22.490Z,96.51
2018-09-12T05:07:57.918Z,96.32
2018-09-12T05:08:33.313Z,96.90
2018-09-12T05:09:08.863Z,97.09
2018-09-12T05:09:44.004Z,97.09
2018-09-12T05:10:19.475Z,97.28
2018-09-12T05:10:54.631Z,96.70
2018-09-12T05:11:30.004Z,96.99
2018-09-12T05:12:05.318Z,96.80
2018-09-12T05:12:40.770Z,96.99
2018-09-12T05:13:16.272Z,96.80
2018-09-12T05:13:51.499Z,96.90
2018-09-12T05:14:27.127Z,96.99
2018-09-12T05:15:02.562Z,97.09
2018-09-12T05:15:37.994Z,96.90
2018-09-12T05:16:13.307Z,96.90
2018-09-12T05:16:48.765Z,96.90
2018-09-12T05:17:23.993Z,96.99
2018-09-12T05:17:59.520Z,97.14
2018-09-12T05:18:34.855Z,96.90
2018-09-12T05:19:10.266Z,96.94
2018-09-12T05:19:45.708Z,96.90
2018-09-12T05:20:21.156Z,97.14
2018-09-12T05:20:56.400Z,96.80
2018-09-12T05:21:31.805Z,97.28
2018-09-12T05:22:07.092Z,97.19
2018-09-12T05:22:42.532Z,96.99
2018-09-12T05:23:17.825Z,96.70
2018-09-12T05:23:52.857Z,96.99
2018-09-12T05:24:28.353Z,97.57
2018-09-12T05:25:03.888Z,97.57
2018-09-12T05:25:39.120Z,97.38
2018-09-12T05:26:14.321Z,97.42
2018-09-12T05:26:49.554Z,97.19
2018-09-12T05:27:25.209Z,97.19
2018-09-12T05:28:00.727Z,97.28
2018-09-12T05:28:36.098Z,97.38
2018-09-12T05:29:11.272Z,97.38
2018-09-12T05:29:46.939Z,98.14
2018-09-12T05:30:22.383Z,97.86
2018-09-12T05:30:58.019Z,97.57
2018-09-12T05:31:33.213Z,98.05
2018-09-12T05:32:08.458Z,98.14
2018-09-12T05:32:43.925Z,98.34
2018-09-12T05:33:19.238Z,98.44
2018-09-12T05:33:54.681Z,98.24
2018-09-12T05:34:30.076Z,98.44
2018-09-12T05:35:05.509Z,98.44
2018-09-12T05:35:40.827Z,98.34
2018-09-12T05:36:16.465Z,98.82
2018-09-12T05:36:51.794Z,98.63
2018-09-12T05:37:27.194Z,98.44
2018-09-12T05:38:02.558Z,98.44
2018-09-12T05:38:38.278Z,98.91
2018-09-12T05:39:13.484Z,99.01
2018-09-12T05:39:48.628Z,99.11
2018-09-12T05:40:23.929Z,98.44
2018-09-12T05:40:59.576Z,98.91
2018-09-12T05:41:34.775Z,98.05
2018-09-12T05:42:10.192Z,98.63
2018-09-12T05:42:45.759Z,98.63
2018-09-12T05:43:21.934Z,98.10
2018-09-12T05:43:58.100Z,98.39
2018-09-12T05:44:33.543Z,98.44
2018-09-12T05:45:09.559Z,98.19
2018-09-12T05:45:45.053Z,98.44
2018-09-12T05:46:21.004Z,98.44
2018-09-12T05:46:56.539Z,98.53
2018-09-12T05:47:31.628Z,98.82
2018-09-12T05:48:06.972Z,98.53
2018-09-12T05:48:42.291Z,98.44
2018-09-12T05:49:17.979Z,98.44
2018-09-12T05:49:53.704Z,98.72
2018-09-12T05:50:29.507Z,98.53
2018-09-12T05:51:05.520Z,97.96
2018-09-12T05:51:41.127Z,97.86
2018-09-12T05:52:16.537Z,98.05
2018-09-12T05:52:51.721Z,98.34
2018-09-12T05:53:27.025Z,97.67
2018-09-12T05:54:02.494Z,98.53
2018-09-12T05:54:38.268Z,97.86
2018-09-12T05:55:13.819Z,98.14
2018-09-12T05:55:49.413Z,97.67
2018-09-12T05:56:25.102Z,98.34
2018-09-12T05:57:00.543Z,98.29
2018-09-12T05:57:36.097Z,97.57
2018-09-12T05:58:11.331Z,97.42
2018-09-12T05:58:46.811Z,97.42
2018-09-12T05:59:22.032Z,97.62
2018-09-12T05:59:57.820Z,97.14
2018-09-12T06:00:33.130Z,98.19
2018-09-12T06:01:08.624Z,98.00
2018-09-12T06:01:43.918Z,97.96
2018-09-12T06:02:19.219Z,97.28
2018-09-12T06:02:54.650Z,97.96
2018-09-12T06:03:30.249Z,98.10
2018-09-12T06:04:05.636Z,98.10
2018-09-12T06:04:41.370Z,98.29
2018-09-12T06:05:17.093Z,98.29
2018-09-12T06:05:52.745Z,98.00
2018-09-12T06:06:28.356Z,98.00
2018-09-12T06:07:04.361Z,98.29
2018-09-12T06:07:40.352Z,98.29
2018-09-12T06:08:15.604Z,98.39
2018-09-12T06:08:50.894Z,97.91
2018-09-12T06:09:26.129Z,98.00
2018-09-12T06:10:01.606Z,98.00
2018-09-12T06:10:37.983Z,98.19
2018-09-12T06:11:13.365Z,98.10
2018-09-12T06:11:49.051Z,97.91
2018-09-12T06:12:24.731Z,98.19
2018-09-12T06:13:00.675Z,98.00
2018-09-12T06:13:36.161Z,98.00
2018-09-12T06:14:11.589Z,98.19
2018-09-12T06:14:47.290Z,98.39
2018-09-12T06:15:22.817Z,97.52
2018-09-12T06:15:58.360Z,97.62
2018-09-12T06:16:33.675Z,97.62
2018-09-12T06:17:09.530Z,97.71
2018-09-12T06:17:45.008Z,97.52
2018-09-12T06:18:20.524Z,97.81
2018-09-12T06:18:55.948Z,97.42
2018-09-12T06:19:31.535Z,97.42
2018-09-12T06:20:06.831Z,98.05
2018-09-12T06:20:42.273Z,97.04
2018-09-12T06:21:17.729Z,97.33
2018-09-12T06:21:52.917Z,96.99
2018-09-12T06:22:28.231Z,96.99
2018-09-12T06:23:03.899Z,97.09
2018-09-12T06:23:39.384Z,97.09
2018-09-12T06:24:14.928Z,96.80
2018-09-12T06:24:50.414Z,96.89
2018-09-12T06:25:25.732Z,96.99
2018-09-12T06:26:01.604Z,97.09
2018-09-12T06:26:37.311Z,97.04
2018-09-12T06:27:12.901Z,97.38
2018-09-12T06:27:48.483Z,97.04
2018-09-12T06:28:24.266Z,97.19
2018-09-12T06:29:00.038Z,96.85
2018-09-12T06:29:36.326Z,97.04
2018-09-12T06:30:11.946Z,97.24
2018-09-12T06:30:47.388Z,97.14
2018-09-12T06:31:23.555Z,97.19
2018-09-12T06:31:58.878Z,97.14
2018-09-12T06:32:35.398Z,96.94
2018-09-12T06:33:10.710Z,96.56
2018-09-12T06:33:46.110Z,97.04
2018-09-12T06:34:21.454Z,96.75
2018-09-12T06:34:56.874Z,97.24
2018-09-12T06:35:32.262Z,97.14
2018-09-12T06:36:07.828Z,96.85
2018-09-12T06:36:43.438Z,97.14
2018-09-12T06:37:18.731Z,97.24
2018-09-12T06:37:54.238Z,97.04
2018-09-12T06:38:30.044Z,96.85
2018-09-12T06:39:05.436Z,97.04
2018-09-12T06:39:40.652Z,97.04
2018-09-12T06:40:16.178Z,97.33
2018-09-12T06:40:51.397Z,96.85
2018-09-12T06:41:26.592Z,97.14
2018-09-12T06:42:02.681Z,97.14
2018-09-12T06:42:37.981Z,97.04
2018-09-12T06:43:13.565Z,97.14
2018-09-12T06:43:49.291Z,96.85
2018-09-12T06:44:24.651Z,97.42
2018-09-12T06:45:00.178Z,97.62
2018-09-12T06:45:35.773Z,97.42
2018-09-12T06:46:10.979Z,97.04
2018-09-12T06:46:46.450Z,96.85
2018-09-12T06:47:21.958Z,96.94
2018-09-12T06:47:57.408Z,96.85
2018-09-12T06:48:32.940Z,97.04
2018-09-12T06:49:08.627Z,96.94
2018-09-12T06:49:44.290Z,96.75
2018-09-12T06:50:19.968Z,97.24
2018-09-12T06:50:56.220Z,96.85
2018-09-12T06:51:31.603Z,97.14
2018-09-12T06:52:07.283Z,97.24
2018-09-12T06:52:42.725Z,97.04
2018-09-12T06:53:18.073Z,97.24
2018-09-12T06:53:53.357Z,97.24
2018-09-12T06:54:28.804Z,97.24
2018-09-12T06:55:03.992Z,97.04
2018-09-12T06:55:40.344Z,97.14
2018-09-12T06:56:16.402Z,97.33
2018-09-12T06:56:51.620Z,96.94
2018-09-12T06:57:27.019Z,97.04
2018-09-12T06:58:02.542Z,96.99
2018-09-12T06:58:37.809Z,96.89
2018-09-12T06:59:13.145Z,96.89
2018-09-12T06:59:48.332Z,96.70
2018-09-12T07:00:23.610Z,96.70
2018-09-12T07:00:58.730Z,96.89
2018-09-12T07:01:34.070Z,96.47
2018-09-12T07:02:09.446Z,96.94
2018-09-12T07:02:44.861Z,96.80
2018-09-12T07:03:20.556Z,96.80
2018-09-12T07:03:55.809Z,96.70
2018-09-12T07:04:31.113Z,96.70
2018-09-12T07:05:06.760Z,96.42
2018-09-12T07:05:41.989Z,96.70
2018-09-12T07:06:17.401Z,96.70
2018-09-12T07:06:52.741Z,96.51
2018-09-12T07:07:28.159Z,96.80
2018-09-12T07:08:03.677Z,97.09
2018-09-12T07:08:38.995Z,96.32
2018-09-12T07:09:14.217Z,96.99
2018-09-12T07:09:49.307Z,96.03
2018-09-12T07:10:24.565Z,96.12
2018-09-12T07:10:59.559Z,96.37
2018-09-12T07:11:35.142Z,96.66
2018-09-12T07:12:10.899Z,96.22
2018-09-12T07:12:46.124Z,95.94
2018-09-12T07:13:21.612Z,96.12
2018-09-12T07:13:56.859Z,96.46
2018-09-12T07:14:32.161Z,96.46
2018-09-12T07:15:07.573Z,96.46
2018-09-12T07:15:43.022Z,95.69
2018-09-12T07:16:18.537Z,95.16
2018-09-12T07:16:53.822Z,94.20
2018-09-12T07:17:29.569Z,93.91
2018-09-12T07:18:04.978Z,93.76
2018-09-12T07:18:40.406Z,93.28
2018-09-12T07:19:15.722Z,93.19
2018-09-12T07:19:51.169Z,93.09
2018-09-12T07:20:26.381Z,93.09
2018-09-12T07:21:01.892Z,93.38
2018-09-12T07:21:37.193Z,92.99
2018-09-12T07:22:12.654Z,93.19
2018-09-12T07:22:47.842Z,93.19
2018-09-12T07:23:23.312Z,93.09
2018-09-12T07:23:58.609Z,92.90
2018-09-12T07:24:34.064Z,93.57
2018-09-12T07:25:09.326Z,92.99
2018-09-12T07:25:44.605Z,92.99
2018-09-12T07:26:20.050Z,92.90
2018-09-12T07:26:55.336Z,93.76
2018-09-12T07:27:30.963Z,93.66
2018-09-12T07:28:06.402Z,93.28
2018-09-12T07:28:41.694Z,92.90
2018-09-12T07:29:17.138Z,93.19
2018-09-12T07:29:52.513Z,92.61
2018-09-12T07:30:27.883Z,92.41
2018-09-12T07:31:03.440Z,92.71
2018-09-12T07:31:39.189Z,93.19
2018-09-12T07:32:14.556Z,93.38
2018-09-12T07:32:50.078Z,93.66
2018-09-12T07:33:25.834Z,93.96
2018-09-12T07:34:01.326Z,93.91
2018-09-12T07:34:37.013Z,93.86
2018-09-12T07:35:12.345Z,93.96
2018-09-12T07:35:47.810Z,93.76
2018-09-12T07:36:23.054Z,93.96